Time;durP1;ratioP1;P1;durP2;ratioP2;P2;SDS_P1;SDS_P2;PMS_P1;PMS_P2;Temp;Humidity;BMP_temperature;BMP_pressure;BME280_temperature;BME280_humidity;BME280_pressure;Samples;Min_cycle;Max_cycle;Signal;HPM_P1;HPM_P2
2024/03/24 00:01:26;;;;;;;9.35;4.35;;;;;;;;;;5129304;28;20269;-56
2024/03/24 00:03:52;;;;;;;13.70;5.50;;;;;;;;;;5131097;28;20059;-55
2024/03/24 00:06:18;;;;;;;10.07;4.78;;;;;;;;;;5133121;28;20031;-53
2024/03/24 00:08:43;;;;;;;13.27;5.07;;;;;;;;;;5133923;28;20043;-52
2024/03/24 00:11:09;;;;;;;12.95;4.85;;;;;;;;;;5132226;28;20554;-57
2024/03/24 00:13:34;;;;;;;15.57;4.77;;;;;;;;;;5129245;28;20042;-56
2024/03/24 00:16:01;;;;;;;11.00;6.53;;;;;;;;;;5136319;28;20058;-55
2024/03/24 00:18:27;;;;;;;11.13;5.00;;;;;;;;;;5136300;28;20036;-56
2024/03/24 00:20:52;;;;;;;13.13;5.57;;;;;;;;;;5134912;28;20038;-55
2024/03/24 00:23:18;;;;;;;12.35;5.30;;;;;;;;;;5129177;28;20256;-57
2024/03/24 00:25:44;;;;;;;17.37;5.50;;;;;;;;;;5136234;28;20045;-54
2024/03/24 00:28:09;;;;;;;14.82;5.65;;;;;;;;;;5129136;28;20028;-54
2024/03/24 00:30:35;;;;;;;9.60;4.97;;;;;;;;;;5135180;28;20035;-58
2024/03/24 00:33:00;;;;;;;16.13;6.93;;;;;;;;;;5130374;28;20273;-55
2024/03/24 00:35:26;;;;;;;12.27;6.25;;;;;;;;;;5134890;28;20020;-57
2024/03/24 00:37:51;;;;;;;14.53;6.57;;;;;;;;;;5118050;28;20055;-56
2024/03/24 00:40:17;;;;;;;15.17;6.70;;;;;;;;;;5135893;28;20264;-56
2024/03/24 00:42:43;;;;;;;17.13;6.82;;;;;;;;;;5134356;28;20039;-58
2024/03/24 00:45:09;;;;;;;18.90;7.50;;;;;;;;;;5134547;28;20118;-56
2024/03/24 00:47:34;;;;;;;15.00;6.85;;;;;;;;;;5131391;28;20054;-57
2024/03/24 00:50:00;;;;;;;15.88;7.60;;;;;;;;;;5129220;28;20027;-54
2024/03/24 00:52:25;;;;;;;24.47;7.87;;;;;;;;;;5131629;28;20023;-57
2024/03/24 00:54:51;;;;;;;20.10;7.63;;;;;;;;;;5124705;28;20268;-58
2024/03/24 00:57:16;;;;;;;18.10;9.33;;;;;;;;;;5135190;28;20091;-57
2024/03/24 00:59:41;;;;;;;17.73;8.03;;;;;;;;;;5123227;28;20051;-56
2024/03/24 01:02:06;;;;;;;16.30;7.87;;;;;;;;;;5130821;28;20099;-55
2024/03/24 01:04:32;;;;;;;16.13;8.27;;;;;;;;;;5117406;28;20032;-56
2024/03/24 01:06:58;;;;;;;18.20;7.47;;;;;;;;;;5117280;28;20027;-54
2024/03/24 01:09:23;;;;;;;20.05;8.57;;;;;;;;;;5135518;28;20264;-58
2024/03/24 01:11:49;;;;;;;18.90;8.93;;;;;;;;;;5135105;28;20026;-57
2024/03/24 01:14:14;;;;;;;15.98;8.77;;;;;;;;;;5134380;28;20060;-56
2024/03/24 01:16:40;;;;;;;17.37;8.63;;;;;;;;;;5134082;28;20031;-56
2024/03/24 01:19:06;;;;;;;16.45;9.55;;;;;;;;;;5135425;28;20028;-51
2024/03/24 01:21:31;;;;;;;18.65;8.52;;;;;;;;;;5133412;28;20023;-52
2024/03/24 01:23:58;;;;;;;20.40;9.23;;;;;;;;;;5127460;28;20038;-57
2024/03/24 01:26:24;;;;;;;23.60;10.25;;;;;;;;;;5134880;28;20031;-55
2024/03/24 01:28:49;;;;;;;20.10;10.60;;;;;;;;;;5135251;28;20039;-56
2024/03/24 01:31:14;;;;;;;21.63;9.87;;;;;;;;;;5134903;28;20062;-58
2024/03/24 01:33:40;;;;;;;21.10;9.50;;;;;;;;;;5120205;28;20035;-54
2024/03/24 01:36:06;;;;;;;18.20;9.05;;;;;;;;;;5131038;28;20020;-57
2024/03/24 01:38:31;;;;;;;19.17;9.95;;;;;;;;;;5135026;28;20036;-54
2024/03/24 01:40:57;;;;;;;25.52;10.55;;;;;;;;;;5134944;28;20034;-53
2024/03/24 01:43:22;;;;;;;23.03;9.77;;;;;;;;;;5133348;28;20035;-55
2024/03/24 01:45:47;;;;;;;19.60;7.80;;;;;;;;;;5127744;28;20060;-53
2024/03/24 01:48:13;;;;;;;18.77;9.88;;;;;;;;;;5134779;28;20071;-56
2024/03/24 01:50:39;;;;;;;20.23;9.70;;;;;;;;;;5131613;28;20032;-57
2024/03/24 01:53:07;;;;;;;24.50;9.67;;;;;;;;;;5134614;28;20063;-54
2024/03/24 01:55:32;;;;;;;23.05;10.48;;;;;;;;;;5133899;28;20328;-55
2024/03/24 01:57:58;;;;;;;18.95;8.98;;;;;;;;;;5134821;28;20043;-57
2024/03/24 02:00:24;;;;;;;21.70;10.00;;;;;;;;;;5131640;28;20197;-57
2024/03/24 02:02:49;;;;;;;21.97;8.90;;;;;;;;;;5114963;28;20275;-55
2024/03/24 02:05:22;;;;;;;21.00;9.45;;;;;;;;;;5133355;28;20031;-57
2024/03/24 02:07:47;;;;;;;22.92;8.85;;;;;;;;;;5131045;28;20042;-54
2024/03/24 02:10:12;;;;;;;22.33;8.03;;;;;;;;;;5138633;28;20087;-54
2024/03/24 02:12:38;;;;;;;20.27;8.20;;;;;;;;;;5136001;28;20043;-54
2024/03/24 02:15:03;;;;;;;24.97;9.60;;;;;;;;;;5137996;28;20083;-57
2024/03/24 02:17:29;;;;;;;28.65;8.57;;;;;;;;;;5138452;28;20031;-54
2024/03/24 02:19:54;;;;;;;26.90;9.07;;;;;;;;;;5138648;28;20114;-54
2024/03/24 02:22:20;;;;;;;27.35;9.68;;;;;;;;;;5137412;28;20080;-56
2024/03/24 02:24:45;;;;;;;27.17;10.27;;;;;;;;;;5135954;28;20032;-55
2024/03/24 02:27:10;;;;;;;21.43;9.90;;;;;;;;;;5138427;28;20069;-56
2024/03/24 02:29:36;;;;;;;25.10;10.83;;;;;;;;;;5136587;28;20050;-55
2024/03/24 02:32:02;;;;;;;38.77;10.60;;;;;;;;;;5130584;28;20020;-57
2024/03/24 02:34:28;;;;;;;24.90;9.95;;;;;;;;;;5133513;28;20260;-54
2024/03/24 02:36:53;;;;;;;29.93;10.50;;;;;;;;;;5138232;28;20039;-62
2024/03/24 02:39:19;;;;;;;30.63;10.48;;;;;;;;;;5137419;28;20368;-55
2024/03/24 02:41:44;;;;;;;33.10;10.60;;;;;;;;;;5132913;28;20035;-56
2024/03/24 02:44:10;;;;;;;25.03;9.63;;;;;;;;;;5133491;28;20043;-59
2024/03/24 02:46:35;;;;;;;31.40;10.75;;;;;;;;;;5132781;28;20027;-57
2024/03/24 02:49:00;;;;;;;31.47;11.10;;;;;;;;;;5136354;28;20051;-58
2024/03/24 02:51:26;;;;;;;26.70;10.32;;;;;;;;;;5133627;28;20028;-58
2024/03/24 02:53:52;;;;;;;27.53;9.70;;;;;;;;;;5135051;28;20031;-57
2024/03/24 02:56:17;;;;;;;30.83;9.83;;;;;;;;;;5131235;28;20075;-58
2024/03/24 02:58:42;;;;;;;30.77;10.47;;;;;;;;;;5137524;28;20256;-58
2024/03/24 03:01:09;;;;;;;24.38;10.13;;;;;;;;;;5138134;28;20031;-58
2024/03/24 03:03:35;;;;;;;24.45;9.57;;;;;;;;;;5136566;28;20070;-60
2024/03/24 03:06:01;;;;;;;26.10;9.65;;;;;;;;;;5135726;28;20032;-58
2024/03/24 03:08:27;;;;;;;33.42;9.15;;;;;;;;;;5137289;28;20035;-61
2024/03/24 03:10:52;;;;;;;18.20;7.82;;;;;;;;;;5137862;28;20087;-58
2024/03/24 03:13:18;;;;;;;33.22;9.85;;;;;;;;;;5131945;28;20035;-58
2024/03/24 03:15:43;;;;;;;21.17;7.13;;;;;;;;;;5131714;28;20024;-57
2024/03/24 03:18:09;;;;;;;25.88;9.15;;;;;;;;;;5135095;28;20502;-57
2024/03/24 03:20:34;;;;;;;32.85;7.53;;;;;;;;;;5137350;28;20050;-58
2024/03/24 03:23:00;;;;;;;20.37;7.03;;;;;;;;;;5134857;28;20031;-58
2024/03/24 03:25:25;;;;;;;25.15;6.93;;;;;;;;;;5136814;28;20027;-60
2024/03/24 03:27:51;;;;;;;37.90;9.43;;;;;;;;;;5137313;28;20100;-57
2024/03/24 03:30:16;;;;;;;32.35;7.82;;;;;;;;;;5136861;28;20027;-58
2024/03/24 03:32:42;;;;;;;25.13;8.67;;;;;;;;;;5136816;28;20044;-60
2024/03/24 03:35:08;;;;;;;38.70;9.02;;;;;;;;;;5111157;28;20076;-58
2024/03/24 03:37:33;;;;;;;22.43;8.77;;;;;;;;;;5137176;28;20027;-60
2024/03/24 03:40:00;;;;;;;24.15;7.63;;;;;;;;;;5137135;28;20087;-59
2024/03/24 03:42:25;;;;;;;35.08;8.48;;;;;;;;;;5135685;28;20040;-60
2024/03/24 03:44:52;;;;;;;41.33;10.07;;;;;;;;;;5126951;28;20088;-57
2024/03/24 03:47:18;;;;;;;;;;;;;;;;;;5133902;28;20093;-58
2024/03/24 03:49:50;;;;;;;37.13;11.07;;;;;;;;;;5136819;28;19949;-59
2024/03/24 03:52:16;;;;;;;49.53;14.52;;;;;;;;;;5136678;28;20114;-58
2024/03/24 03:54:41;;;;;;;56.63;14.35;;;;;;;;;;5131037;28;20024;-59
2024/03/24 03:57:07;;;;;;;74.57;15.77;;;;;;;;;;5126962;28;20632;-57
2024/03/24 03:59:32;;;;;;;44.83;12.87;;;;;;;;;;5135015;28;20068;-59
2024/03/24 04:01:57;;;;;;;44.83;8.20;;;;;;;;;;5136469;28;20015;-57
2024/03/24 04:04:25;;;;;;;20.02;4.40;;;;;;;;;;5128076;28;20083;-59
2024/03/24 04:06:51;;;;;;;23.53;5.20;;;;;;;;;;5126938;28;20027;-58
2024/03/24 04:09:16;;;;;;;9.45;2.35;;;;;;;;;;5136654;28;20027;-58
2024/03/24 04:11:42;;;;;;;10.32;3.03;;;;;;;;;;5136495;28;20026;-58
2024/03/24 04:14:08;;;;;;;11.43;2.30;;;;;;;;;;5133028;28;20032;-59
2024/03/24 04:16:33;;;;;;;9.27;1.97;;;;;;;;;;5133732;28;20038;-57
2024/03/24 04:18:59;;;;;;;10.33;2.13;;;;;;;;;;5136507;28;20285;-58
2024/03/24 04:21:26;;;;;;;8.20;1.95;;;;;;;;;;5134507;28;20088;-57
2024/03/24 04:23:51;;;;;;;10.53;2.90;;;;;;;;;;5136294;28;20039;-57
2024/03/24 04:26:17;;;;;;;10.40;2.60;;;;;;;;;;5130572;28;20031;-59
2024/03/24 04:28:43;;;;;;;9.10;2.03;;;;;;;;;;5135405;28;20284;-56
2024/03/24 04:31:09;;;;;;;12.63;2.50;;;;;;;;;;5135229;28;20047;-59
2024/03/24 04:33:35;;;;;;;9.63;2.00;;;;;;;;;;5135464;28;20038;-58
2024/03/24 04:36:00;;;;;;;14.47;2.10;;;;;;;;;;5133479;28;20267;-59
2024/03/24 04:38:26;;;;;;;16.23;1.95;;;;;;;;;;5126455;28;20035;-60
2024/03/24 04:40:51;;;;;;;9.07;3.23;;;;;;;;;;5135907;28;20031;-57
2024/03/24 04:43:17;;;;;;;13.67;4.97;;;;;;;;;;5130978;28;20328;-59
2024/03/24 04:45:45;;;;;;;8.87;1.90;;;;;;;;;;5125906;28;20271;-59
2024/03/24 04:48:11;;;;;;;12.25;2.38;;;;;;;;;;5135926;28;20035;-58
2024/03/24 04:50:40;;;;;;;18.48;3.00;;;;;;;;;;5135625;28;20027;-59
2024/03/24 04:53:08;;;;;;;17.17;3.80;;;;;;;;;;5133389;28;20019;-58
2024/03/24 04:55:33;;;;;;;11.47;3.80;;;;;;;;;;5130340;28;20032;-58
2024/03/24 04:57:59;;;;;;;13.30;2.60;;;;;;;;;;5133557;28;20049;-57
2024/03/24 05:00:26;;;;;;;15.25;3.17;;;;;;;;;;5135340;28;20070;-59
2024/03/24 05:02:52;;;;;;;8.55;2.63;;;;;;;;;;5134411;28;20027;-59
2024/03/24 05:05:17;;;;;;;10.23;2.80;;;;;;;;;;5135102;28;20046;-59
2024/03/24 05:07:43;;;;;;;15.87;2.80;;;;;;;;;;5131155;28;20275;-57
2024/03/24 05:10:09;;;;;;;;;;;;;;;;;;5135856;28;20027;-60
2024/03/24 05:12:35;;;;;;;6.63;3.85;;;;;;;;;;5135644;28;19912;-57
2024/03/24 05:15:04;;;;;;;10.93;3.03;;;;;;;;;;5123732;28;20024;-61
2024/03/24 05:17:29;;;;;;;8.73;3.05;;;;;;;;;;5135477;28;20032;-58
2024/03/24 05:19:55;;;;;;;11.80;3.53;;;;;;;;;;5135296;28;20057;-60
2024/03/24 05:22:20;;;;;;;10.70;3.47;;;;;;;;;;5135429;28;20089;-58
2024/03/24 05:24:48;;;;;;;14.68;2.92;;;;;;;;;;5109834;28;20128;-57
2024/03/24 05:27:15;;;;;;;9.57;2.40;;;;;;;;;;5127497;28;20035;-59
2024/03/24 05:29:41;;;;;;;;;;;;;;;;;;5135620;28;20038;-59
2024/03/24 05:32:06;;;;;;;13.23;2.93;;;;;;;;;;5135362;28;19908;-57
2024/03/24 05:34:32;;;;;;;12.03;3.33;;;;;;;;;;5131234;28;20031;-59
2024/03/24 05:36:58;;;;;;;18.17;4.03;;;;;;;;;;5130331;28;20256;-60
2024/03/24 05:39:23;;;;;;;20.50;4.03;;;;;;;;;;5136061;28;20279;-58
2024/03/24 05:41:49;;;;;;;14.87;3.93;;;;;;;;;;5139281;28;20043;-59
2024/03/24 05:44:15;;;;;;;;;;;;;;;;;;5139108;28;20032;-59
2024/03/24 05:46:40;;;;;;;16.70;5.40;;;;;;;;;;5133329;28;19912;-59
2024/03/24 05:49:05;;;;;;;21.90;3.83;;;;;;;;;;5137872;28;20066;-58
2024/03/24 05:51:31;;;;;;;22.85;3.88;;;;;;;;;;5139124;28;20260;-58
2024/03/24 05:53:57;;;;;;;11.30;3.80;;;;;;;;;;5139063;28;20080;-58
2024/03/24 05:56:22;;;;;;;11.25;3.53;;;;;;;;;;5135072;28;20032;-58
2024/03/24 05:58:48;;;;;;;12.88;3.97;;;;;;;;;;5137722;28;20051;-59
2024/03/24 06:01:13;;;;;;;8.73;3.33;;;;;;;;;;5127137;28;20036;-56
2024/03/24 06:03:39;;;;;;;10.68;3.50;;;;;;;;;;5137647;28;20054;-58
2024/03/24 06:06:05;;;;;;;17.15;4.25;;;;;;;;;;5132128;28;20043;-59
2024/03/24 06:08:34;;;;;;;10.07;3.40;;;;;;;;;;5138636;28;20027;-59
2024/03/24 06:10:59;;;;;;;12.48;3.55;;;;;;;;;;5138949;28;20028;-58
2024/03/24 06:13:25;;;;;;;7.97;3.30;;;;;;;;;;5121046;28;20031;-59
2024/03/24 06:15:51;;;;;;;12.10;4.27;;;;;;;;;;5123726;28;20035;-58
2024/03/24 06:18:16;;;;;;;8.83;3.40;;;;;;;;;;5137677;28;20336;-57
2024/03/24 06:20:42;;;;;;;16.97;4.17;;;;;;;;;;5138785;28;20035;-59
2024/03/24 06:23:08;;;;;;;;;;;;;;;;;;5135272;28;20047;-58
2024/03/24 06:25:33;;;;;;;11.00;3.30;;;;;;;;;;5137651;28;19915;-60
2024/03/24 06:28:01;;;;;;;14.48;4.43;;;;;;;;;;5136268;28;20027;-59
2024/03/24 06:30:28;;;;;;;13.80;3.78;;;;;;;;;;5138521;28;20030;-58
2024/03/24 06:32:53;;;;;;;;;;;;;;;;;;5138962;28;20042;-58
2024/03/24 06:35:19;;;;;;;31.93;6.60;;;;;;;;;;5137015;28;19939;-57
2024/03/24 06:37:44;;;;;;;26.30;6.10;;;;;;;;;;5134916;28;20039;-59
2024/03/24 06:40:10;;;;;;;22.38;5.55;;;;;;;;;;5138379;28;20056;-57
2024/03/24 06:42:59;;;;;;;18.38;5.65;;;;;;;;;;5138118;28;20047;-56
2024/03/24 06:45:28;;;;;;;15.88;3.95;;;;;;;;;;5129315;28;20036;-59
2024/03/24 06:47:54;;;;;;;9.48;4.07;;;;;;;;;;5137937;28;20037;-59
2024/03/24 06:50:19;;;;;;;14.87;4.70;;;;;;;;;;5137761;28;20035;-59
2024/03/24 06:52:44;;;;;;;13.60;4.97;;;;;;;;;;5138261;28;20035;-58
2024/03/24 06:55:10;;;;;;;27.48;5.05;;;;;;;;;;5131342;28;20028;-57
2024/03/24 06:57:36;;;;;;;26.77;6.30;;;;;;;;;;5137419;28;20118;-58
2024/03/24 07:00:02;;;;;;;41.40;6.57;;;;;;;;;;5136194;28;20028;-57
2024/03/24 07:02:27;;;;;;;32.72;6.93;;;;;;;;;;5125842;28;20260;-58
2024/03/24 07:04:52;;;;;;;46.37;9.77;;;;;;;;;;5137564;28;20057;-55
2024/03/24 07:07:18;;;;;;;48.22;10.13;;;;;;;;;;5132771;28;20035;-56
2024/03/24 07:09:43;;;;;;;65.13;15.87;;;;;;;;;;5137564;28;20035;-59
2024/03/24 07:12:09;;;;;;;44.92;11.85;;;;;;;;;;5135030;28;20419;-58
2024/03/24 07:14:35;;;;;;;29.80;10.67;;;;;;;;;;5128364;28;20040;-58
2024/03/24 07:17:00;;;;;;;38.67;9.00;;;;;;;;;;5130256;28;20328;-59
2024/03/24 07:19:27;;;;;;;52.10;9.73;;;;;;;;;;5119758;28;20290;-58
2024/03/24 07:21:52;;;;;;;28.23;8.80;;;;;;;;;;5136938;28;20028;-58
2024/03/24 07:24:18;;;;;;;34.90;7.60;;;;;;;;;;5137535;28;20034;-58
2024/03/24 07:26:44;;;;;;;31.63;6.73;;;;;;;;;;5129374;28;20059;-57
2024/03/24 07:29:09;;;;;;;28.73;8.23;;;;;;;;;;5137148;28;20087;-57
2024/03/24 07:31:35;;;;;;;35.85;9.50;;;;;;;;;;5137218;28;20039;-56
2024/03/24 07:34:00;;;;;;;26.15;8.25;;;;;;;;;;5131248;28;20026;-56
2024/03/24 07:36:26;;;;;;;40.27;7.87;;;;;;;;;;5136670;28;20038;-56
2024/03/24 07:38:52;;;;;;;33.65;8.25;;;;;;;;;;5131204;28;20028;-57
2024/03/24 07:41:17;;;;;;;38.70;8.20;;;;;;;;;;5137208;28;20038;-56
2024/03/24 07:43:43;;;;;;;34.43;9.07;;;;;;;;;;5137195;28;20145;-56
2024/03/24 07:46:08;;;;;;;37.17;7.40;;;;;;;;;;5136255;28;20031;-58
2024/03/24 07:48:33;;;;;;;26.23;7.70;;;;;;;;;;5131008;28;20291;-58
2024/03/24 07:50:58;;;;;;;32.83;7.77;;;;;;;;;;5137137;28;20051;-58
2024/03/24 07:53:25;;;;;;;23.63;6.80;;;;;;;;;;5136493;28;20034;-60
2024/03/24 07:55:50;;;;;;;28.33;8.17;;;;;;;;;;5135030;28;20091;-55
2024/03/24 07:58:16;;;;;;;29.80;7.33;;;;;;;;;;5129943;28;20044;-58
2024/03/24 08:00:41;;;;;;;33.67;10.73;;;;;;;;;;5136725;28;20271;-58
2024/03/24 08:03:07;;;;;;;36.42;8.95;;;;;;;;;;5135344;28;20035;-54
2024/03/24 08:05:32;;;;;;;24.40;9.55;;;;;;;;;;5136020;28;20043;-55
2024/03/24 08:07:58;;;;;;;38.00;9.17;;;;;;;;;;5134880;28;20035;-58
2024/03/24 08:10:24;;;;;;;42.70;10.47;;;;;;;;;;5115821;28;20260;-56
2024/03/24 08:12:50;;;;;;;38.55;10.32;;;;;;;;;;5136618;28;20031;-59
2024/03/24 08:15:15;;;;;;;25.25;6.97;;;;;;;;;;5130355;28;20046;-55
2024/03/24 08:17:41;;;;;;;40.85;10.18;;;;;;;;;;5130548;28;20020;-54
2024/03/24 08:20:06;;;;;;;29.40;8.77;;;;;;;;;;5136406;28;20031;-56
2024/03/24 08:22:32;;;;;;;15.43;6.10;;;;;;;;;;5135475;28;20039;-55
2024/03/24 08:24:59;;;;;;;33.35;8.52;;;;;;;;;;5136266;28;20028;-54
2024/03/24 08:27:25;;;;;;;18.77;4.93;;;;;;;;;;5125458;28;20028;-57
2024/03/24 08:29:51;;;;;;;38.53;8.90;;;;;;;;;;5132257;28;20255;-56
2024/03/24 08:32:19;;;;;;;23.05;5.15;;;;;;;;;;5136152;28;20252;-59
2024/03/24 08:34:44;;;;;;;19.67;5.60;;;;;;;;;;5122193;28;20027;-58
2024/03/24 08:37:10;;;;;;;29.30;5.15;;;;;;;;;;5132169;28;20261;-57
2024/03/24 08:39:35;;;;;;;19.03;5.60;;;;;;;;;;5133381;28;20027;-53
2024/03/24 08:42:01;;;;;;;13.27;3.53;;;;;;;;;;5135534;28;20036;-58
2024/03/24 08:44:26;;;;;;;19.90;4.20;;;;;;;;;;5135346;28;20101;-58
2024/03/24 08:46:52;;;;;;;22.83;5.00;;;;;;;;;;5134549;28;20027;-54
2024/03/24 08:49:20;;;;;;;13.13;3.93;;;;;;;;;;5131431;28;20280;-53
2024/03/24 08:51:49;;;;;;;16.57;4.37;;;;;;;;;;5123501;28;20261;-58
2024/03/24 08:54:15;;;;;;;23.20;5.17;;;;;;;;;;5135292;28;20479;-56
2024/03/24 08:56:41;;;;;;;20.27;5.03;;;;;;;;;;5126692;28;20294;-57
2024/03/24 08:59:07;;;;;;;17.43;4.10;;;;;;;;;;5134787;28;20295;-57
2024/03/24 09:01:33;;;;;;;15.83;3.97;;;;;;;;;;5135533;28;20268;-57
2024/03/24 09:03:59;;;;;;;19.98;5.47;;;;;;;;;;5135562;28;20055;-57
2024/03/24 09:06:26;;;;;;;10.30;3.13;;;;;;;;;;5129186;28;20086;-57
2024/03/24 09:08:51;;;;;;;16.40;3.47;;;;;;;;;;5129542;28;20283;-57
2024/03/24 09:11:16;;;;;;;14.23;3.07;;;;;;;;;;5135266;28;20031;-59
2024/03/24 09:13:42;;;;;;;16.30;4.03;;;;;;;;;;5135355;28;20051;-56
2024/03/24 09:16:07;;;;;;;19.95;4.22;;;;;;;;;;5135280;28;20027;-58
2024/03/24 09:18:34;;;;;;;22.70;4.75;;;;;;;;;;5131639;28;20057;-59
2024/03/24 09:21:05;;;;;;;21.90;3.13;;;;;;;;;;5131903;28;20053;-59
2024/03/24 09:23:30;;;;;;;22.40;4.57;;;;;;;;;;5131991;28;20266;-58
2024/03/24 09:25:56;;;;;;;15.67;3.43;;;;;;;;;;5128484;28;20276;-59
2024/03/24 09:28:21;;;;;;;15.77;3.93;;;;;;;;;;5132545;28;20031;-57
2024/03/24 09:31:09;;;;;;;12.38;3.78;;;;;;;;;;5134646;28;20031;-58
2024/03/24 09:33:35;;;;;;;14.97;4.90;;;;;;;;;;5135053;28;20039;-54
2024/03/24 09:36:00;;;;;;;17.97;5.10;;;;;;;;;;5133668;28;20244;-57
2024/03/24 09:38:27;;;;;;;22.60;5.97;;;;;;;;;;5134717;28;20275;-54
2024/03/24 09:40:52;;;;;;;19.77;5.68;;;;;;;;;;5134909;28;20030;-54
2024/03/24 09:43:19;;;;;;;9.27;1.90;;;;;;;;;;5135280;28;20023;-53
2024/03/24 09:45:44;;;;;;;12.38;1.77;;;;;;;;;;5134843;28;20040;-53
2024/03/24 09:48:11;;;;;;;5.60;1.33;;;;;;;;;;5125707;28;20030;-56
2024/03/24 09:50:37;;;;;;;5.07;1.65;;;;;;;;;;5133057;28;20065;-57
2024/03/24 09:53:03;;;;;;;8.85;1.83;;;;;;;;;;5135070;28;20027;-56
2024/03/24 09:55:29;;;;;;;9.10;2.00;;;;;;;;;;5133979;28;20095;-59
2024/03/24 09:57:55;;;;;;;10.63;1.73;;;;;;;;;;5128311;28;20282;-54
2024/03/24 10:00:22;;;;;;;5.57;1.88;;;;;;;;;;5134995;28;20028;-55
2024/03/24 10:02:47;;;;;;;9.73;2.40;;;;;;;;;;5134933;28;20094;-55
2024/03/24 10:05:13;;;;;;;10.07;1.73;;;;;;;;;;5130815;28;20036;-56
2024/03/24 10:07:39;;;;;;;7.53;2.60;;;;;;;;;;5131458;28;20040;-57
2024/03/24 10:10:07;;;;;;;8.73;2.47;;;;;;;;;;5134852;28;20053;-57
2024/03/24 10:12:33;;;;;;;8.27;2.17;;;;;;;;;;5113901;28;20043;-55
2024/03/24 10:15:18;;;;;;;10.30;2.10;;;;;;;;;;5133421;28;20023;-57
2024/03/24 10:17:43;;;;;;;6.85;1.75;;;;;;;;;;5132162;28;20369;-57
2024/03/24 10:20:13;;;;;;;8.25;2.35;;;;;;;;;;5130570;28;20032;-58
2024/03/24 10:22:39;;;;;;;9.82;2.22;;;;;;;;;;5133714;28;20031;-57
2024/03/24 10:25:11;;;;;;;8.45;3.58;;;;;;;;;;5133761;28;20042;-56
2024/03/24 10:27:37;;;;;;;9.68;3.25;;;;;;;;;;5137614;28;20036;-56
2024/03/24 10:30:03;;;;;;;;;;;;;;;;;;5138602;28;20031;-58
2024/03/24 10:32:28;;;;;;;13.63;3.50;;;;;;;;;;5138188;28;19947;-58
2024/03/24 10:34:54;;;;;;;15.77;4.00;;;;;;;;;;5138315;28;20055;-56
2024/03/24 10:37:19;;;;;;;18.67;3.78;;;;;;;;;;5138231;28;20073;-53
2024/03/24 10:39:45;;;;;;;16.00;3.80;;;;;;;;;;5132970;28;20066;-58
2024/03/24 10:42:12;;;;;;;15.82;5.00;;;;;;;;;;5138208;28;20035;-57
2024/03/24 10:44:38;;;;;;;19.38;3.92;;;;;;;;;;5131999;28;20042;-58
2024/03/24 10:47:04;;;;;;;41.22;9.07;;;;;;;;;;5137675;28;20028;-55
2024/03/24 10:49:33;;;;;;;36.15;8.82;;;;;;;;;;5135244;28;20032;-56
2024/03/24 10:51:58;;;;;;;34.80;9.20;;;;;;;;;;5137865;28;20057;-56
2024/03/24 10:54:25;;;;;;;41.00;10.23;;;;;;;;;;5133248;28;20031;-57
2024/03/24 10:56:51;;;;;;;34.13;8.10;;;;;;;;;;5134857;28;20264;-56
2024/03/24 10:59:17;;;;;;;34.97;7.43;;;;;;;;;;5137780;28;20268;-55
2024/03/24 11:01:43;;;;;;;38.05;9.07;;;;;;;;;;5137624;28;20280;-56
2024/03/24 11:04:09;;;;;;;35.73;8.13;;;;;;;;;;5137928;28;20061;-58
2024/03/24 11:06:35;;;;;;;32.83;7.33;;;;;;;;;;5136909;28;20272;-59
2024/03/24 11:09:01;;;;;;;38.25;7.97;;;;;;;;;;5136838;28;20051;-56
2024/03/24 11:11:26;;;;;;;22.87;5.30;;;;;;;;;;5137436;28;20038;-58
2024/03/24 11:13:53;;;;;;;36.07;7.03;;;;;;;;;;5137604;28;20256;-58
2024/03/24 11:16:18;;;;;;;;;;;;;;;;;;5138288;28;20032;-56
2024/03/24 11:18:44;;;;;;;10.07;3.40;;;;;;;;;;5120093;28;19904;-59
2024/03/24 11:21:27;;;;;;;22.02;4.18;;;;;;;;;;5133789;28;20031;-58
2024/03/24 11:23:53;;;;;;;27.08;5.20;;;;;;;;;;5137482;28;20114;-58
2024/03/24 11:26:24;;;;;;;21.23;5.45;;;;;;;;;;5137473;28;20028;-57
2024/03/24 11:28:50;;;;;;;38.37;9.47;;;;;;;;;;5126677;28;20047;-58
2024/03/24 11:31:21;;;;;;;36.13;7.83;;;;;;;;;;5137093;28;20272;-56
2024/03/24 11:34:15;;;;;;;36.03;5.80;;;;;;;;;;5137356;28;20262;-57
2024/03/24 11:36:42;;;;;;;25.93;5.70;;;;;;;;;;5130639;28;20296;-56
2024/03/24 11:39:09;;;;;;;32.53;6.28;;;;;;;;;;5133900;28;20268;-56
2024/03/24 11:41:35;;;;;;;20.80;5.17;;;;;;;;;;5136947;28;20036;-58
2024/03/24 11:44:04;;;;;;;24.20;4.43;;;;;;;;;;5133615;28;20285;-57
2024/03/24 11:46:31;;;;;;;23.47;4.67;;;;;;;;;;5136002;28;20438;-57
2024/03/24 11:48:56;;;;;;;;;;;;;;;;;;5135285;28;20339;-55
2024/03/24 11:51:22;;;;;;;18.60;4.10;;;;;;;;;;5136867;28;19911;-51
2024/03/24 11:53:51;;;;;;;19.45;3.53;;;;;;;;;;5131395;28;20038;-58
2024/03/24 11:56:18;;;;;;;13.93;3.07;;;;;;;;;;5136186;28;20054;-56
2024/03/24 11:58:45;;;;;;;9.87;2.63;;;;;;;;;;5122403;28;20329;-58
2024/03/24 12:01:11;;;;;;;23.93;4.60;;;;;;;;;;5136794;28;20266;-57
2024/03/24 12:03:38;;;;;;;19.98;3.95;;;;;;;;;;5136405;28;20282;-56
2024/03/24 12:06:04;;;;;;;38.03;5.97;;;;;;;;;;5136660;28;20031;-53
2024/03/24 12:08:30;;;;;;;22.38;4.03;;;;;;;;;;5130513;28;20027;-56
2024/03/24 12:10:55;;;;;;;31.20;4.00;;;;;;;;;;5133877;28;20047;-58
2024/03/24 12:13:20;;;;;;;14.30;3.93;;;;;;;;;;5136152;28;20020;-56
2024/03/24 12:15:45;;;;;;;23.10;4.80;;;;;;;;;;5136349;28;20131;-54
2024/03/24 12:18:12;;;;;;;23.90;5.27;;;;;;;;;;5127984;28;20055;-59
2024/03/24 12:20:37;;;;;;;32.00;5.15;;;;;;;;;;5135805;27;20036;-57
2024/03/24 12:23:03;;;;;;;22.83;4.45;;;;;;;;;;5131780;28;20054;-58
2024/03/24 12:25:29;;;;;;;24.52;4.35;;;;;;;;;;5128217;28;20039;-53
2024/03/24 12:27:55;;;;;;;11.43;3.22;;;;;;;;;;5132027;28;20032;-56
2024/03/24 12:30:24;;;;;;;8.75;2.35;;;;;;;;;;5129601;28;20091;-53
2024/03/24 12:32:50;;;;;;;12.10;2.10;;;;;;;;;;5136213;28;20019;-57
2024/03/24 12:35:17;;;;;;;10.52;4.05;;;;;;;;;;5136010;28;20057;-56
2024/03/24 12:37:44;;;;;;;16.03;2.90;;;;;;;;;;5134538;28;20031;-56
2024/03/24 12:40:16;;;;;;;20.30;3.60;;;;;;;;;;5131000;28;20275;-55
2024/03/24 12:42:41;;;;;;;12.93;3.13;;;;;;;;;;5133642;28;20032;-56
2024/03/24 12:45:10;;;;;;;17.30;2.60;;;;;;;;;;5135359;28;20055;-55
2024/03/24 12:47:36;;;;;;;14.20;2.60;;;;;;;;;;5130803;28;20044;-52
2024/03/24 12:50:02;;;;;;;10.50;3.03;;;;;;;;;;5134458;28;20043;-53
2024/03/24 12:52:28;;;;;;;18.53;2.57;;;;;;;;;;5135241;28;20060;-56
2024/03/24 12:54:53;;;;;;;12.17;2.63;;;;;;;;;;5135630;28;20055;-54
2024/03/24 12:57:19;;;;;;;13.63;3.40;;;;;;;;;;5134902;28;20043;-55
2024/03/24 12:59:54;;;;;;;28.43;3.73;;;;;;;;;;5132251;28;20099;-56
2024/03/24 13:02:20;;;;;;;15.60;3.40;;;;;;;;;;5123139;28;20055;-55
2024/03/24 13:04:46;;;;;;;;;;;;;;;;;;5135600;28;20260;-55
2024/03/24 13:07:11;;;;;;;11.48;3.10;;;;;;;;;;5133925;28;19919;-52
2024/03/24 13:09:36;;;;;;;21.47;3.80;;;;;;;;;;5125536;28;20040;-54
2024/03/24 13:12:03;;;;;;;15.57;2.77;;;;;;;;;;5135118;28;20112;-55
2024/03/24 13:14:28;;;;;;;20.33;4.00;;;;;;;;;;5134808;28;20057;-57
2024/03/24 13:16:57;;;;;;;20.07;3.60;;;;;;;;;;5135124;28;20271;-57
2024/03/24 13:19:26;;;;;;;17.67;2.73;;;;;;;;;;5130595;28;20032;-54
2024/03/24 13:21:51;;;;;;;15.87;2.67;;;;;;;;;;5135284;28;20087;-57
2024/03/24 13:24:20;;;;;;;10.30;2.17;;;;;;;;;;5134942;28;20019;-59
2024/03/24 13:26:48;;;;;;;13.00;2.50;;;;;;;;;;5125519;28;20043;-56
2024/03/24 13:29:13;;;;;;;13.10;3.27;;;;;;;;;;5133015;28;20032;-54
2024/03/24 13:31:38;;;;;;;10.93;2.80;;;;;;;;;;5134906;28;20034;-56
2024/03/24 13:34:04;;;;;;;17.77;2.87;;;;;;;;;;5131200;28;20073;-57
2024/03/24 13:36:47;;;;;;;19.77;4.18;;;;;;;;;;5134291;28;20040;-56
2024/03/24 13:39:15;;;;;;;14.70;3.37;;;;;;;;;;5121555;28;20035;-58
2024/03/24 13:41:59;;;;;;;8.50;2.63;;;;;;;;;;5135046;28;20327;-56
2024/03/24 13:44:31;;;;;;;26.33;3.27;;;;;;;;;;5133916;28;20252;-60
2024/03/24 13:47:04;;;;;;;19.17;3.60;;;;;;;;;;5133224;28;20250;-59
2024/03/24 13:49:29;;;;;;;21.97;4.07;;;;;;;;;;5118369;28;20269;-57
2024/03/24 13:51:55;;;;;;;22.83;4.40;;;;;;;;;;5132774;28;20278;-57
2024/03/24 13:54:21;;;;;;;22.17;3.70;;;;;;;;;;5134703;28;20024;-58
2024/03/24 13:56:47;;;;;;;22.63;2.80;;;;;;;;;;5134229;28;20095;-57
2024/03/24 13:59:12;;;;;;;39.30;5.30;;;;;;;;;;5123034;28;20048;-56
2024/03/24 14:01:38;;;;;;;24.00;3.30;;;;;;;;;;5132869;28;20271;-58
2024/03/24 14:04:03;;;;;;;19.07;4.03;;;;;;;;;;5132012;28;20084;-57
2024/03/24 14:06:29;;;;;;;25.25;3.17;;;;;;;;;;5122588;28;20032;-54
2024/03/24 14:08:55;;;;;;;20.70;4.15;;;;;;;;;;5127981;28;20063;-59
2024/03/24 14:11:20;;;;;;;21.37;3.43;;;;;;;;;;5134001;28;20035;-59
2024/03/24 14:13:57;;;;;;;19.77;4.10;;;;;;;;;;5138598;28;20032;-57
2024/03/24 14:16:29;;;;;;;13.77;4.23;;;;;;;;;;5138484;28;20051;-59
2024/03/24 14:18:54;;;;;;;21.40;3.07;;;;;;;;;;5136156;28;20260;-59
2024/03/24 14:21:43;;;;;;;23.87;4.23;;;;;;;;;;5133026;28;20380;-60
2024/03/24 14:24:28;;;;;;;23.77;3.43;;;;;;;;;;5121355;28;20335;-60
2024/03/24 14:26:54;;;;;;;13.63;3.60;;;;;;;;;;5138388;28;20271;-58
2024/03/24 14:29:19;;;;;;;17.35;2.85;;;;;;;;;;5132686;28;20633;-54